Time;durP1;ratioP1;P1;durP2;ratioP2;P2;SDS_P1;SDS_P2;PMS_P1;PMS_P2;Temp;Humidity;BMP_temperature;BMP_pressure;BME280_temperature;BME280_humidity;BME280_pressure;Samples;Min_cycle;Max_cycle;Signal;HPM_P1;HPM_P2
2021/04/11 00:00:14;;;;;;;6.78;3.55;;;;;;;10.33;75.90;97825.16;5047994;28;45334;-85
2021/04/11 00:02:39;;;;;;;9.88;4.32;;;;;;;10.12;75.61;97817.66;5046665;28;45210;-86
2021/04/11 00:05:06;;;;;;;9.35;4.53;;;;;;;10.29;73.92;97826.47;5046999;28;45462;-85
2021/04/11 00:07:32;;;;;;;9.45;4.35;;;;;;;10.18;76.70;97822.31;5035287;28;45469;-85
2021/04/11 00:09:58;;;;;;;7.07;4.18;;;;;;;10.12;74.86;97815.81;5039557;28;45484;-85
2021/04/11 00:12:23;;;;;;;10.07;4.20;;;;;;;10.15;73.87;97815.47;5039710;28;45332;-85
2021/04/11 00:14:49;;;;;;;10.43;4.60;;;;;;;10.24;72.74;97807.53;5039743;28;45275;-85
2021/04/11 00:17:14;;;;;;;8.30;5.10;;;;;;;10.16;74.24;97808.34;5040163;28;45321;-85
2021/04/11 00:19:40;;;;;;;12.88;5.60;;;;;;;10.22;73.83;97799.72;5045924;28;45335;-84
2021/04/11 00:22:06;;;;;;;7.85;5.03;;;;;;;10.24;74.52;97803.03;5039576;28;45417;-85
2021/04/11 00:24:32;;;;;;;10.65;5.43;;;;;;;10.18;75.76;97798.38;5039563;28;45230;-85
2021/04/11 00:26:57;;;;;;;7.95;4.35;;;;;;;9.97;74.91;97793.53;5039846;28;45480;-84
2021/04/11 00:29:22;;;;;;;12.10;4.38;;;;;;;9.92;75.35;97786.06;5042615;28;45412;-84
2021/04/11 00:31:48;;;;;;;8.30;4.13;;;;;;;10.04;75.07;97782.09;5039662;28;45548;-85
2021/04/11 00:34:13;;;;;;;8.88;4.10;;;;;;;9.90;77.49;97778.25;5039397;28;45263;-84
2021/04/11 00:36:39;;;;;;;9.00;4.43;;;;;;;10.06;76.95;97779.25;5039811;28;45343;-85
2021/04/11 00:39:05;;;;;;;9.52;4.95;;;;;;;10.08;77.41;97782.59;5021548;28;45228;-84
2021/04/11 00:41:34;;;;;;;8.02;3.85;;;;;;;10.12;75.68;97778.59;5039402;28;45489;-85
2021/04/11 00:44:03;;;;;;;6.70;3.97;;;;;;;9.82;76.66;97775.59;5039392;28;45330;-84
2021/04/11 00:46:38;;;;;;;8.63;4.43;;;;;;;10.02;76.98;97776.13;5039345;28;45287;-85
2021/04/11 00:49:04;;;;;;;8.88;4.03;;;;;;;9.80;76.98;97763.47;5048902;28;45603;-83
2021/04/11 00:51:31;;;;;;;10.30;4.30;;;;;;;9.84;76.52;97768.28;5051589;28;45225;-84
2021/04/11 00:53:59;;;;;;;9.65;4.22;;;;;;;9.74;77.85;97763.13;5038911;28;45474;-85
2021/04/11 00:56:25;;;;;;;7.63;4.07;;;;;;;9.83;77.35;97763.16;5042210;28;45235;-85
2021/04/11 00:58:51;;;;;;;5.65;3.33;;;;;;;9.96;76.55;97749.38;5043539;28;45550;-84
2021/04/11 01:01:17;;;;;;;8.07;3.47;;;;;;;9.81;79.08;97752.69;5039211;28;45465;-84
2021/04/11 01:03:43;;;;;;;6.28;3.72;;;;;;;9.87;79.55;97748.56;5039105;28;45432;-84
2021/04/11 01:06:19;;;;;;;6.50;3.63;;;;;;;9.98;76.64;97742.06;5039557;28;45365;-85
2021/04/11 01:08:45;;;;;;;5.90;3.40;;;;;;;9.84;77.05;97739.06;5041698;28;45250;-85
2021/04/11 01:11:17;;;;;;;7.28;3.65;;;;;;;9.87;77.02;97733.44;5028099;28;47042;-85
2021/04/11 01:13:47;;;;;;;6.15;3.40;;;;;;;9.80;76.91;97732.44;5052300;28;45420;-85
2021/04/11 01:16:14;;;;;;;6.43;3.67;;;;;;;9.84;77.19;97725.78;5039729;28;45448;-85
2021/04/11 01:18:41;;;;;;;7.03;3.80;;;;;;;9.93;77.33;97734.63;5039038;28;45573;-85
2021/04/11 01:21:16;;;;;;;8.85;4.40;;;;;;;10.08;76.88;97730.31;5038746;28;45260;-85
2021/04/11 01:24:10;;;;;;;8.63;3.65;;;;;;;10.08;76.92;97724.16;5045853;28;45444;-84
2021/04/11 01:26:36;;;;;;;7.88;3.40;;;;;;;10.00;76.93;97729.44;5044407;28;45512;-84
2021/04/11 01:29:02;;;;;;;6.00;3.20;;;;;;;10.03;76.62;97723.81;5047522;28;45640;-85
2021/04/11 01:31:32;;;;;;;7.20;3.78;;;;;;;9.77;77.84;97717.66;5033768;28;47535;-85
2021/04/11 01:33:59;;;;;;;7.57;3.33;;;;;;;9.56;80.74;97722.59;5038564;28;45330;-84
2021/04/11 01:36:28;;;;;;;7.15;3.85;;;;;;;9.46;81.22;97718.25;5040240;28;45449;-85
2021/04/11 01:38:54;;;;;;;7.95;3.60;;;;;;;9.37;82.32;97718.41;5026164;28;45247;-84
2021/04/11 01:41:28;;;;;;;9.45;3.70;;;;;;;9.27;82.79;97722.00;5033599;28;46030;-85
2021/04/11 01:43:54;;;;;;;6.20;2.58;;;;;;;9.51;82.06;97712.47;5037190;28;45737;-84
2021/04/11 01:46:23;;;;;;;4.32;2.25;;;;;;;9.58;80.55;97715.28;5039371;28;45430;-85
2021/04/11 01:48:49;;;;;;;4.07;2.60;;;;;;;9.70;79.91;97708.66;5067357;28;45499;-84
2021/04/11 01:51:18;;;;;;;4.78;2.75;;;;;;;9.57;80.54;97706.50;5053589;28;45325;-85
2021/04/11 01:53:45;;;;;;;4.53;2.92;;;;;;;9.46;81.80;97712.13;5038245;28;45159;-84
2021/04/11 01:56:12;;;;;;;4.03;2.42;;;;;;;9.15;83.56;97710.88;5038325;28;45323;-85
2021/04/11 01:58:38;;;;;;;4.80;2.60;;;;;;;9.15;82.52;97707.38;5036483;28;45644;-85
2021/04/11 02:01:12;;;;;;;4.55;2.42;;;;;;;8.96;84.27;97703.16;5038196;28;46063;-85
2021/04/11 02:03:39;;;;;;;5.28;2.42;;;;;;;9.08;83.65;97703.69;5051615;28;45365;-84
2021/04/11 02:06:07;;;;;;;4.65;2.20;;;;;;;9.15;82.37;97707.38;5038300;28;45462;-86
2021/04/11 02:08:36;;;;;;;6.20;2.35;;;;;;;9.09;83.37;97710.66;5020370;28;45270;-86
2021/04/11 02:11:04;;;;;;;4.03;1.95;;;;;;;8.97;84.63;97707.47;5037818;28;46710;-87
2021/04/11 02:13:33;;;;;;;5.45;2.83;;;;;;;8.76;85.47;97703.38;5037819;28;45393;-86
2021/04/11 02:16:01;;;;;;;4.07;2.10;;;;;;;9.14;82.49;97703.91;5038301;28;45504;-87
2021/04/11 02:18:29;;;;;;;3.75;1.80;;;;;;;9.26;81.99;97700.94;5038679;28;45289;-86
2021/04/11 02:20:56;;;;;;;3.13;2.10;;;;;;;9.10;83.35;97697.25;5036357;28;47827;-86
2021/04/11 02:23:24;;;;;;;4.55;2.33;;;;;;;8.93;84.12;97699.00;5037791;28;45216;-85
2021/04/11 02:25:52;;;;;;;4.65;2.30;;;;;;;8.88;83.98;97696.00;5037710;28;45235;-85
2021/04/11 02:28:19;;;;;;;4.93;2.10;;;;;;;8.85;84.82;97704.25;5048534;28;45422;-85
2021/04/11 02:30:53;;;;;;;5.95;2.15;;;;;;;8.80;84.94;97702.06;5036937;28;46124;-85
2021/04/11 02:33:20;;;;;;;3.78;2.08;;;;;;;8.90;83.77;97704.63;5037628;28;45350;-85
2021/04/11 02:35:46;;;;;;;3.17;2.13;;;;;;;8.72;84.41;97697.56;5037937;28;45561;-85
2021/04/11 02:38:12;;;;;;;3.70;1.80;;;;;;;8.67;84.91;97694.56;5045829;28;45210;-85
2021/04/11 02:40:45;;;;;;;4.30;2.80;;;;;;;8.69;85.10;97689.09;5037191;28;46254;-84
2021/04/11 02:43:12;;;;;;;3.17;2.05;;;;;;;8.63;84.83;97689.72;5037824;28;45299;-85
2021/04/11 02:45:42;;;;;;;4.50;2.30;;;;;;;8.61;84.89;97689.91;5043508;28;45228;-85
2021/04/11 02:48:13;;;;;;;5.30;2.73;;;;;;;8.67;84.78;97689.25;5049438;28;45510;-85
2021/04/11 02:50:40;;;;;;;3.25;2.25;;;;;;;8.69;85.22;97686.44;5063102;28;45224;-85
2021/04/11 02:53:22;;;;;;;4.90;2.47;;;;;;;8.60;85.25;97682.94;5037584;28;45334;-84
2021/04/11 02:55:48;;;;;;;2.85;2.08;;;;;;;8.80;83.90;97691.47;5042261;28;45295;-85
2021/04/11 02:58:16;;;;;;;3.42;2.00;;;;;;;8.66;84.63;97684.94;5037448;28;45281;-84
2021/04/11 03:00:48;;;;;;;2.88;1.75;;;;;;;8.57;85.10;97683.25;5032655;28;47310;-84
2021/04/11 03:03:13;;;;;;;3.75;2.05;;;;;;;8.59;84.90;97690.03;5019421;28;45320;-84
2021/04/11 03:05:39;;;;;;;4.22;2.40;;;;;;;8.54;84.35;97680.91;5038399;28;45466;-84
2021/04/11 03:08:07;;;;;;;2.72;1.65;;;;;;;8.42;85.04;97683.78;5037332;28;45545;-84
2021/04/11 03:11:07;;;;;;;2.03;1.60;;;;;;;8.36;84.95;97687.03;5036643;28;46795;-84
2021/04/11 03:13:35;;;;;;;4.97;1.92;;;;;;;8.31;85.63;97692.81;5037059;28;45238;-84
2021/04/11 03:16:01;;;;;;;4.65;2.30;;;;;;;8.27;86.34;97690.63;5047036;28;45358;-84
2021/04/11 03:18:27;;;;;;;4.38;2.40;;;;;;;8.22;86.59;97683.16;5040201;28;45512;-84
2021/04/11 03:20:56;;;;;;;3.58;2.08;;;;;;;8.26;85.54;97679.22;5037228;28;45954;-84
2021/04/11 03:23:21;;;;;;;4.78;2.50;;;;;;;8.27;85.23;97674.72;5036928;28;45302;-84
2021/04/11 03:25:53;;;;;;;6.47;3.13;;;;;;;8.30;85.33;97677.91;5044220;28;45397;-84
2021/04/11 03:28:27;;;;;;;5.22;2.85;;;;;;;8.26;85.49;97675.72;5038315;28;45328;-84
2021/04/11 03:31:04;;;;;;;4.47;2.63;;;;;;;8.22;85.49;97663.78;5036990;28;46334;-84
2021/04/11 03:33:43;;;;;;;2.22;1.85;;;;;;;8.11;85.99;97660.41;5023580;28;45374;-85
2021/04/11 03:36:13;;;;;;;2.45;1.50;;;;;;;8.13;85.42;97668.19;5042731;28;45420;-84
2021/04/11 03:38:40;;;;;;;3.75;2.13;;;;;;;8.13;86.02;97671.66;5036870;28;45299;-86
2021/04/11 03:41:06;;;;;;;3.08;1.90;;;;;;;7.98;85.85;97671.41;5033543;28;47015;-85
2021/04/11 03:44:04;;;;;;;2.75;1.70;;;;;;;7.94;85.30;97677.97;5040665;28;45336;-86
2021/04/11 03:46:32;;;;;;;4.13;2.00;;;;;;;7.90;86.39;97671.31;5027080;28;45296;-86
2021/04/11 03:49:05;;;;;;;3.78;1.83;;;;;;;7.91;86.34;97680.09;5065677;28;45316;-85
2021/04/11 03:51:35;;;;;;;2.47;1.63;;;;;;;8.13;84.04;97673.50;5052733;28;45582;-86
2021/04/11 03:54:23;;;;;;;2.47;1.30;;;;;;;7.95;85.01;97673.53;5039904;28;45427;-85
2021/04/11 03:57:07;;;;;;;3.97;1.40;;;;;;;7.88;85.95;97671.47;5022584;28;45592;-85
2021/04/11 03:59:46;;;;;;;3.78;1.80;;;;;;;7.86;85.51;97670.81;5040318;28;45257;-85
2021/04/11 04:02:16;;;;;;;2.70;1.70;;;;;;;7.89;85.13;97669.66;5037414;28;47277;-85
2021/04/11 04:04:43;;;;;;;4.97;1.70;;;;;;;7.88;85.87;97665.34;5050209;28;45209;-84
2021/04/11 04:07:12;;;;;;;3.75;1.95;;;;;;;7.93;85.51;97680.78;5040464;28;45297;-84
2021/04/11 04:09:38;;;;;;;3.80;1.90;;;;;;;7.94;86.33;97685.91;5039642;28;45352;-84
2021/04/11 04:12:13;;;;;;;2.33;1.50;;;;;;;8.20;84.64;97686.94;5038176;28;47606;-83
2021/04/11 04:14:54;;;;;;;2.42;1.58;;;;;;;7.98;84.90;97686.44;5039895;28;45264;-83
2021/04/11 04:17:32;;;;;;;2.97;1.80;;;;;;;8.09;84.58;97680.91;5051717;28;45286;-84
2021/04/11 04:20:06;;;;;;;4.18;1.77;;;;;;;8.16;85.45;97676.66;5039597;28;45294;-84
2021/04/11 04:22:43;;;;;;;3.88;1.80;;;;;;;7.99;85.37;97683.66;5039655;28;45945;-85
2021/04/11 04:25:18;;;;;;;3.25;2.22;;;;;;;8.05;84.67;97684.84;5039482;28;45382;-84
2021/04/11 04:27:52;;;;;;;3.35;2.00;;;;;;;8.00;85.60;97684.47;5046825;28;45465;-84
2021/04/11 04:30:24;;;;;;;3.90;2.15;;;;;;;8.02;85.74;97680.72;5047520;28;45294;-84
2021/04/11 04:33:17;;;;;;;2.72;1.77;;;;;;;7.98;86.12;97681.16;5044365;28;46397;-83
2021/04/11 04:35:46;;;;;;;4.78;1.88;;;;;;;7.91;85.85;97680.09;5029001;28;45682;-84
2021/04/11 04:38:28;;;;;;;2.45;1.75;;;;;;;8.03;84.97;97676.22;5053018;28;45349;-84
2021/04/11 04:41:08;;;;;;;3.22;2.10;;;;;;;7.79;86.73;97680.34;5035191;28;45576;-84
2021/04/11 04:43:42;;;;;;;4.90;2.30;;;;;;;7.79;86.20;97688.28;5048792;28;45530;-84
2021/04/11 04:46:13;;;;;;;6.22;2.40;;;;;;;7.70;86.50;97681.25;5027442;28;46115;-85
2021/04/11 04:48:48;;;;;;;3.63;2.13;;;;;;;7.59;86.62;97674.38;5042004;28;45318;-85
2021/04/11 04:51:40;;;;;;;4.80;2.05;;;;;;;7.58;86.90;97676.19;5054853;28;45290;-84
2021/04/11 04:54:19;;;;;;;4.13;2.00;;;;;;;7.50;87.35;97673.44;5038405;28;46436;-83
2021/04/11 04:56:55;;;;;;;3.92;2.03;;;;;;;7.60;86.16;97681.31;5040193;28;45212;-82
2021/04/11 04:59:25;;;;;;;4.28;2.00;;;;;;;7.67;86.16;97678.91;5039248;28;45347;-82
2021/04/11 05:02:20;;;;;;;4.27;2.10;;;;;;;7.67;86.28;97678.91;5039457;28;45257;-83
2021/04/11 05:04:54;;;;;;;4.20;2.40;;;;;;;7.68;86.36;97676.09;5044063;28;45449;-83
2021/04/11 05:07:24;;;;;;;3.15;2.03;;;;;;;7.67;85.65;97676.25;5047440;28;45897;-83
2021/04/11 05:09:56;;;;;;;3.90;2.30;;;;;;;7.73;85.76;97687.06;5038269;28;45410;-84
2021/04/11 05:12:38;;;;;;;4.10;2.33;;;;;;;7.65;85.98;97684.34;5050931;28;45523;-84
2021/04/11 05:15:09;;;;;;;4.72;2.58;;;;;;;7.79;85.94;97696.22;5054942;28;45309;-84
2021/04/11 05:17:38;;;;;;;6.57;2.55;;;;;;;7.85;85.03;97697.41;5052435;28;45184;-84
2021/04/11 05:20:07;;;;;;;4.28;2.35;;;;;;;7.84;85.32;97695.75;5050440;28;45479;-84
2021/04/11 05:22:42;;;;;;;5.15;2.42;;;;;;;7.94;85.25;97701.78;5020315;28;45276;-84
2021/04/11 05:25:36;;;;;;;2.78;1.98;;;;;;;7.88;85.09;97702.41;5037628;28;46285;-85
2021/04/11 05:28:42;;;;;;;3.00;1.70;;;;;;;7.98;85.17;97707.63;5037494;28;45191;-85
2021/04/11 05:31:13;;;;;;;3.83;1.85;;;;;;;8.27;83.79;97701.22;5043025;28;45350;-84
2021/04/11 05:33:41;;;;;;;2.45;1.63;;;;;;;8.18;84.55;97714.41;5038191;28;45758;-83
2021/04/11 05:36:27;;;;;;;3.03;2.10;;;;;;;8.21;84.72;97712.44;5037890;28;45574;-83
2021/04/11 05:39:17;;;;;;;2.65;1.80;;;;;;;8.38;83.48;97719.50;5050008;28;45365;-85
2021/04/11 05:41:58;;;;;;;2.30;1.30;;;;;;;8.44;83.21;97729.53;5048246;28;45484;-85
2021/04/11 05:44:35;;;;;;;2.05;1.20;;;;;;;8.46;83.37;97724.06;5025262;28;45493;-84
2021/04/11 05:47:20;;;;;;;3.67;1.75;;;;;;;8.41;82.93;97726.34;5057071;28;47719;-84
2021/04/11 05:49:48;;;;;;;3.85;1.85;;;;;;;8.58;82.59;97722.00;5039717;28;45486;-82
2021/04/11 05:52:29;;;;;;;2.17;1.45;;;;;;;8.72;82.16;97737.34;5037832;28;45403;-84
2021/04/11 05:54:57;;;;;;;2.83;1.52;;;;;;;8.68;82.95;97727.19;5037608;28;45215;-83
2021/04/11 05:57:41;;;;;;;2.50;1.63;;;;;;;8.73;82.52;97739.00;5037318;28;46165;-84
2021/04/11 06:00:30;;;;;;;3.95;1.70;;;;;;;8.91;81.71;97716.88;5039563;28;45430;-85
2021/04/11 06:03:04;;;;;;;3.38;1.80;;;;;;;8.95;82.09;97728.84;5045731;28;45521;-85
2021/04/11 06:05:44;;;;;;;1.88;1.55;;;;;;;8.88;82.62;97733.13;5040034;28;45314;-82
2021/04/11 06:08:23;;;;;;;3.45;1.75;;;;;;;9.01;82.13;97730.84;5037232;28;45294;-81
2021/04/11 06:11:07;;;;;;;2.42;1.60;;;;;;;8.97;82.51;97729.50;5037398;28;45707;-83
2021/04/11 06:13:43;;;;;;;2.30;1.30;;;;;;;9.12;80.64;97727.09;5039238;28;45552;-80
2021/04/11 06:16:12;;;;;;;3.08;1.50;;;;;;;9.14;80.28;97721.63;5058225;28;45484;-82
2021/04/11 06:18:46;;;;;;;2.90;1.70;;;;;;;9.09;80.86;97721.28;5054118;28;46525;-82
2021/04/11 06:21:21;;;;;;;3.03;1.75;;;;;;;9.08;80.88;97709.84;5059455;28;45267;-81
2021/04/11 06:23:58;;;;;;;3.15;1.55;;;;;;;8.97;80.48;97707.47;5051361;28;45486;-82
2021/04/11 06:26:26;;;;;;;4.20;1.83;;;;;;;9.09;80.35;97705.34;5038926;28;45504;-81
2021/04/11 06:29:10;;;;;;;4.13;1.60;;;;;;;9.08;79.77;97714.31;5025488;28;47570;-82
2021/04/11 06:31:40;;;;;;;3.22;1.70;;;;;;;9.20;80.79;97713.88;5043646;28;45400;-81
2021/04/11 06:34:16;;;;;;;2.30;1.42;;;;;;;9.01;80.79;97711.47;5047353;28;45470;-83
2021/04/11 06:36:45;;;;;;;3.47;1.63;;;;;;;8.96;80.26;97711.94;5043478;28;45694;-81
2021/04/11 06:39:26;;;;;;;2.88;1.60;;;;;;;9.00;79.66;97707.16;5034673;28;46756;-79
2021/04/11 06:42:19;;;;;;;1.45;1.20;;;;;;;8.92;79.85;97707.94;5036621;28;45428;-81
2021/04/11 06:45:09;;;;;;;2.80;1.48;;;;;;;8.95;80.17;97714.75;5039158;28;45411;-84
2021/04/11 06:47:37;;;;;;;3.90;1.95;;;;;;;8.82;80.93;97713.34;5055725;28;45404;-77
2021/04/11 06:50:47;;;;;;;2.00;1.10;;;;;;;8.86;80.24;97706.78;5066178;28;45424;-84
2021/04/11 06:53:18;;;;;;;4.38;1.00;;;;;;;8.81;80.36;97703.72;5030252;28;45585;-81
2021/04/11 06:55:58;;;;;;;3.92;1.10;;;;;;;8.85;80.71;97704.25;5051809;28;45310;-89
2021/04/11 06:58:29;;;;;;;1.98;1.10;;;;;;;8.90;79.53;97701.97;5023406;28;45532;-86
2021/04/11 07:00:55;;;;;;;4.45;1.67;;;;;;;9.02;79.58;97707.84;5018328;28;47491;-80
2021/04/11 07:03:58;;;;;;;2.30;1.30;;;;;;;8.95;80.61;97701.50;5054055;28;45409;-80
2021/04/11 07:06:49;;;;;;;1.85;1.25;;;;;;;8.79;82.13;97703.06;5048742;28;45427;-79
2021/04/11 07:09:20;;;;;;;5.45;2.50;;;;;;;8.85;82.08;97702.47;5049257;28;45437;-80
2021/04/11 07:12:09;;;;;;;2.40;1.70;;;;;;;9.09;81.42;97692.09;5024713;28;48101;-78
2021/04/11 07:15:12;;;;;;;3.47;1.45;;;;;;;9.44;80.18;97693.69;5038332;28;45476;-79
2021/04/11 07:17:43;;;;;;;3.30;1.35;;;;;;;9.89;80.29;97688.94;5043208;28;45417;-79
2021/04/11 07:20:09;;;;;;;3.45;2.47;;;;;;;10.00;79.34;97679.81;5044704;28;45664;-80
2021/04/11 07:22:48;;;;;;;4.95;3.03;;;;;;;10.19;76.80;97678.66;5049475;28;45762;-80
2021/04/11 07:25:32;;;;;;;3.60;2.63;;;;;;;10.66;75.90;97684.25;5052870;28;45363;-80
2021/04/11 07:28:19;;;;;;;4.82;3.00;;;;;;;11.15;76.00;97680.59;5057385;28;45363;-80
2021/04/11 07:31:02;;;;;;;6.20;4.05;;;;;;;11.71;72.89;97678.75;5048338;28;45406;-80
2021/04/11 07:33:45;;;;;;;5.38;3.40;;;;;;;12.18;68.76;97666.25;5039633;28;46060;-80
2021/04/11 07:36:37;;;;;;;4.05;2.45;;;;;;;12.51;63.62;97674.78;5040643;28;45400;-81
2021/04/11 07:39:34;;;;;;;4.75;2.60;;;;;;;12.84;65.12;97668.25;5034210;28;45274;-80
2021/04/11 07:42:37;;;;;;;3.33;2.28;;;;;;;13.21;65.77;97668.31;5049272;28;45514;-80
2021/04/11 07:45:21;;;;;;;4.95;2.20;;;;;;;13.35;65.75;97669.31;5039677;28;45494;-83
2021/04/11 07:48:11;;;;;;;3.97;1.80;;;;;;;13.10;63.97;97662.44;5051614;28;45462;-85
2021/04/11 07:50:39;;;;;;;3.20;2.08;;;;;;;13.18;66.90;97664.16;5043898;28;45567;-88
2021/04/11 07:53:29;;;;;;;5.25;2.40;;;;;;;13.46;65.32;97665.34;5028815;28;45841;-79
2021/04/11 07:56:14;;;;;;;3.92;2.03;;;;;;;13.56;63.87;97665.84;5051254;28;45689;-82
2021/04/11 07:58:45;;;;;;;3.75;1.73;;;;;;;13.86;60.78;97657.75;5029871;28;45569;-81
2021/04/11 08:01:29;;;;;;;2.70;1.30;;;;;;;13.95;58.49;97663.75;5041825;28;45640;-80
2021/04/11 08:04:09;;;;;;;1.70;1.10;;;;;;;13.71;62.55;97666.66;5030152;28;45530;-81
2021/04/11 08:06:56;;;;;;;3.58;1.30;;;;;;;13.39;64.18;97663.41;5054842;28;46358;-80
2021/04/11 08:09:37;;;;;;;2.65;1.25;;;;;;;13.48;64.15;97663.31;5037468;28;45420;-80
2021/04/11 08:12:29;;;;;;;2.10;1.00;;;;;;;13.66;63.59;97665.56;5031059;28;45499;-80
2021/04/11 08:15:18;;;;;;;1.42;0.90;;;;;;;13.72;62.65;97664.78;5053165;28;45351;-78
2021/04/11 08:18:09;;;;;;;1.05;0.80;;;;;;;13.77;60.97;97658.91;5050998;28;45894;-81
2021/04/11 08:20:59;;;;;;;1.30;0.95;;;;;;;13.68;63.39;97666.19;5034257;28;45597;-87
2021/04/11 08:24:06;;;;;;;1.73;1.27;;;;;;;13.82;59.90;97664.50;5048752;28;45464;-80
2021/04/11 08:26:52;;;;;;;1.80;1.10;;;;;;;14.05;58.15;97668.78;4931070;28;45529;-81
2021/04/11 08:29:32;;;;;;;1.38;0.98;;;;;;;13.66;60.43;97673.56;4935745;28;45743;-80
2021/04/11 08:32:36;;;;;;;1.98;0.90;;;;;;;14.16;59.06;97676.28;4993964;28;45419;-80
2021/04/11 08:35:20;;;;;;;1.38;0.90;;;;;;;15.35;55.73;97679.06;5039468;28;45789;-78
2021/04/11 08:37:49;;;;;;;2.00;0.80;;;;;;;15.85;52.32;97683.34;5043433;28;46330;-79
2021/04/11 08:40:32;;;;;;;3.25;0.80;;;;;;;16.99;51.05;97675.28;5050358;28;45808;-79
2021/04/11 08:43:37;;;;;;;0.98;0.88;;;;;;;18.62;44.82;97663.28;5062189;28;45811;-79
2021/04/11 08:46:21;;;;;;;1.42;0.75;;;;;;;21.16;40.54;97664.41;5058541;28;45709;-79
2021/04/11 08:49:04;;;;;;;1.33;0.90;;;;;;;22.02;38.70;97663.56;5053562;28;45545;-79
2021/04/11 08:52:13;;;;;;;1.00;0.80;;;;;;;22.46;37.97;97664.84;5042189;28;45361;-79
2021/04/11 08:54:50;;;;;;;1.55;1.00;;;;;;;22.98;36.71;97660.97;4994545;28;45907;-79
2021/04/11 08:57:38;;;;;;;2.22;1.13;;;;;;;23.54;35.61;97673.63;5001448;28;46208;-78
2021/04/11 09:00:20;;;;;;;2.38;1.15;;;;;;;24.17;37.58;97675.88;5029400;28;45585;-78
2021/04/11 09:02:52;;;;;;;1.63;1.00;;;;;;;23.76;32.33;97668.13;5054434;28;46050;-78
2021/04/11 09:05:43;;;;;;;2.08;0.90;;;;;;;23.89;31.29;97666.91;5058774;28;45565;-78
2021/04/11 09:08:14;;;;;;;1.65;0.93;;;;;;;23.90;32.12;97656.88;5008341;28;45547;-78
2021/04/11 09:10:39;;;;;;;2.05;1.10;;;;;;;24.66;33.20;97657.75;5041113;28;45466;-77
2021/04/11 09:13:39;;;;;;;1.48;0.98;;;;;;;25.40;34.43;97648.88;5042023;28;46080;-78
2021/04/11 09:16:10;;;;;;;1.60;1.17;;;;;;;25.75;34.08;97644.63;5048293;28;45936;-78
2021/04/11 09:18:56;;;;;;;1.83;1.10;;;;;;;25.53;31.80;97647.56;5038283;28;45472;-78
2021/04/11 09:21:43;;;;;;;2.05;1.13;;;;;;;25.34;31.94;97631.72;5024963;28;45448;-78
2021/04/11 09:24:19;;;;;;;2.10;0.93;;;;;;;25.11;34.60;97632.97;5044514;28;45492;-78
2021/04/11 09:27:06;;;;;;;2.45;1.20;;;;;;;23.06;36.80;97626.38;5059152;28;45574;-80
2021/04/11 09:29:53;;;;;;;1.75;1.20;;;;;;;22.84;37.71;97619.06;5024197;28;45387;-79
2021/04/11 09:32:46;;;;;;;2.10;1.10;;;;;;;22.20;38.87;97612.16;5032600;28;45634;-79
2021/04/11 09:35:33;;;;;;;1.67;0.90;;;;;;;21.54;38.85;97622.41;5051049;28;46398;-79
2021/04/11 09:38:06;;;;;;;2.22;1.02;;;;;;;22.12;39.22;97616.91;5049124;28;45840;-79
2021/04/11 09:40:45;;;;;;;1.95;0.93;;;;;;;21.56;36.79;97620.28;5039642;28;45384;-80
2021/04/11 09:43:35;;;;;;;1.65;0.70;;;;;;;21.94;39.17;97604.44;5054857;28;45436;-78
2021/04/11 09:46:22;;;;;;;1.00;0.60;;;;;;;22.17;35.94;97602.66;5050674;28;45768;-80
2021/04/11 09:49:22;;;;;;;1.55;0.70;;;;;;;22.74;35.97;97606.19;5057622;28;45433;-81
2021/04/11 09:52:15;;;;;;;1.65;0.60;;;;;;;23.46;35.85;97606.25;5054054;28;45268;-80
2021/04/11 09:55:03;;;;;;;1.65;0.65;;;;;;;24.29;34.75;97606.97;5045117;28;45530;-80
2021/04/11 09:57:59;;;;;;;1.27;0.63;;;;;;;24.43;33.18;97600.00;5043262;28;45502;-80
2021/04/11 10:00:43;;;;;;;2.88;0.60;;;;;;;24.54;32.67;97603.59;5052755;28;45393;-81
2021/04/11 10:03:29;;;;;;;1.23;0.60;;;;;;;24.83;29.77;97603.25;5045506;28;45331;-78
2021/04/11 10:05:57;;;;;;;1.42;0.70;;;;;;;24.81;31.68;97591.81;5039709;28;45461;-79
2021/04/11 10:08:54;;;;;;;1.90;0.65;;;;;;;24.64;29.61;97594.69;5050014;28;45371;-79
2021/04/11 10:11:30;;;;;;;0.90;0.60;;;;;;;24.65;31.47;97590.06;5013236;28;45421;-78
2021/04/11 10:14:10;;;;;;;1.13;0.60;;;;;;;24.84;31.00;97585.03;5054773;28;45245;-79
2021/04/11 10:17:07;;;;;;;1.00;0.68;;;;;;;24.71;29.12;97583.56;5045483;28;45533;-79
2021/04/11 10:19:42;;;;;;;1.50;0.80;;;;;;;24.87;29.91;97576.34;5038802;28;46110;-79
2021/04/11 10:22:42;;;;;;;2.28;0.80;;;;;;;25.34;30.36;97578.13;5040832;28;46172;-80
2021/04/11 10:25:10;;;;;;;2.35;0.70;;;;;;;25.11;30.29;97575.88;5052008;28;45511;-82
2021/04/11 10:27:49;;;;;;;1.10;0.70;;;;;;;24.46;29.87;97568.78;5033026;28;45284;-79
2021/04/11 10:30:17;;;;;;;3.92;1.45;;;;;;;23.74;29.65;97578.00;5050807;28;45423;-79
2021/04/11 10:32:47;;;;;;;2.45;0.60;;;;;;;23.16;33.11;97570.38;5037517;28;45346;-79
2021/04/11 10:35:37;;;;;;;1.10;0.70;;;;;;;22.58;33.47;97562.63;5052902;28;45434;-80
2021/04/11 10:38:18;;;;;;;0.80;0.52;;;;;;;22.32;34.20;97568.75;5036940;28;45336;-80
2021/04/11 10:41:14;;;;;;;1.48;0.65;;;;;;;22.02;34.78;97566.13;5037825;28;45338;-82
2021/04/11 10:44:01;;;;;;;2.38;0.52;;;;;;;21.63;35.87;97567.91;5037474;28;45492;-81
2021/04/11 10:46:57;;;;;;;0.77;0.50;;;;;;;21.21;36.32;97563.66;5038530;28;45357;-81
2021/04/11 10:49:43;;;;;;;1.25;0.50;;;;;;;21.07;36.64;97557.72;5057368;28;45473;-81
2021/04/11 10:52:43;;;;;;;1.35;0.70;;;;;;;21.02;36.74;97546.81;5039015;28;46191;-83
2021/04/11 10:56:03;;;;;;;1.30;0.60;;;;;;;21.13;36.90;97544.06;5039154;28;45469;-84
2021/04/11 10:59:14;;;;;;;1.33;0.60;;;;;;;21.14;38.24;97540.28;4991449;28;45398;-82
2021/04/11 11:01:48;;;;;;;1.33;0.57;;;;;;;21.03;38.49;97541.16;5051148;28;45485;-78
2021/04/11 11:04:38;;;;;;;2.45;0.60;;;;;;;20.90;38.44;97538.75;5030128;28;48053;-81
2021/04/11 11:07:28;;;;;;;2.47;0.60;;;;;;;20.87;36.95;97529.25;5044841;28;45412;-81
2021/04/11 11:10:04;;;;;;;0.95;0.65;;;;;;;20.84;38.47;97532.44;5054008;28;45436;-81
2021/04/11 11:12:41;;;;;;;1.40;0.47;;;;;;;20.87;39.50;97523.00;5041097;28;45431;-81
2021/04/11 11:15:19;;;;;;;1.02;0.70;;;;;;;20.68;38.20;97521.25;5048167;28;45334;-79
2021/04/11 11:18:04;;;;;;;0.95;0.43;;;;;;;20.73;38.15;97525.13;5043581;28;45353;-80
2021/04/11 11:20:44;;;;;;;2.97;0.60;;;;;;;20.71;37.81;97514.59;5026783;28;45457;-80
2021/04/11 11:23:45;;;;;;;1.00;0.40;;;;;;;20.76;36.68;97519.25;5026698;28;45625;-81
2021/04/11 11:26:42;;;;;;;1.05;0.50;;;;;;;20.63;37.37;97517.66;5031634;28;45462;-79
2021/04/11 11:29:29;;;;;;;0.85;0.40;;;;;;;20.33;36.85;97522.19;5021268;28;45583;-79
2021/04/11 11:32:29;;;;;;;1.85;0.50;;;;;;;20.34;37.58;97509.50;5048663;28;45329;-79
2021/04/11 11:35:07;;;;;;;7.53;0.77;;;;;;;20.05;35.72;97512.09;5029868;28;45370;-80
2021/04/11 11:37:36;;;;;;;1.70;0.60;;;;;;;20.50;37.50;97505.25;5020341;28;46798;-79
2021/04/11 11:40:14;;;;;;;1.27;0.50;;;;;;;20.13;35.55;97514.44;5040118;28;45310;-79
2021/04/11 11:42:56;;;;;;;2.17;0.52;;;;;;;19.95;38.21;97494.63;5044141;28;45343;-78
2021/04/11 11:45:33;;;;;;;1.83;0.57;;;;;;;20.26;37.41;97502.59;5056280;28;45508;-78
2021/04/11 11:48:21;;;;;;;1.58;0.50;;;;;;;20.45;36.52;97494.34;5043634;28;45449;-78
2021/04/11 11:51:02;;;;;;;1.00;0.70;;;;;;;20.68;37.50;97494.25;5051290;28;45460;-79
2021/04/11 11:53:37;;;;;;;1.30;0.50;;;;;;;20.97;36.90;97478.09;5055333;28;45417;-79
2021/04/11 11:56:22;;;;;;;0.98;0.68;;;;;;;21.11;37.23;97488.59;5048163;28;45515;-79
2021/04/11 11:59:03;;;;;;;0.88;0.60;;;;;;;21.10;36.71;97487.78;5042984;28;45459;-79
2021/04/11 12:01:41;;;;;;;1.48;0.60;;;;;;;21.22;36.11;97487.72;5046200;28;45310;-79
2021/04/11 12:04:16;;;;;;;1.63;0.50;;;;;;;21.22;35.38;97487.72;5035095;28;45552;-78
2021/04/11 12:06:51;;;;;;;1.08;0.55;;;;;;;21.45;36.09;97485.13;5047272;28;45578;-81
2021/04/11 12:09:25;;;;;;;1.38;0.80;;;;;;;21.41;35.39;97479.38;5048753;28;46150;-79
2021/04/11 12:12:10;;;;;;;2.00;0.40;;;;;;;21.36;34.89;97479.28;5049808;28;45480;-80
2021/04/11 12:15:01;;;;;;;1.73;0.50;;;;;;;21.26;35.24;97479.97;5053425;28;45482;-79
2021/04/11 12:17:48;;;;;;;2.35;0.50;;;;;;;21.55;35.97;97477.19;5041334;28;45598;-80
2021/04/11 12:20:20;;;;;;;1.02;0.50;;;;;;;21.80;34.11;97482.19;5038739;28;45812;-79
2021/04/11 12:22:50;;;;;;;0.50;0.40;;;;;;;21.88;33.81;97475.53;5038880;28;45346;-80
2021/04/11 12:25:24;;;;;;;1.27;0.60;;;;;;;21.86;34.28;97464.97;5047915;28;45406;-79